Central City, Illinois
Current Conditions -  °F | °C
As of 12:15 PM on Friday 28 Nov 2014 (Local Time) from KENL Reporting Station
Clear Clear  
Wind Chill: 29°   Ceiling: Unl
Heat Index: 38°   Visibility: 10mi
Dew Point: 29°   Wind: 15mph
Humidity: 71%   Direction: 160°SSE
Pressure: 30.14"   Gusts: 22mph
Location:  38.5134°N, 89.1673°W
Report Text: KENL 281815Z AUTO 16013G19KT 10SM CLR 03/M02 A3014 RMK AO2 P0002 T00321016
Loading
Personal Weather Stations






























Interactive Weather Map New forecast layout! Learn more

10-Day Weather Forecast

Advertisements
Track Severe Weather on mobile